createdAt,value
2023-01-18T00:01:09.305Z,28.10
2023-01-18T00:03:38.152Z,28.80
2023-01-18T00:06:07.525Z,22.03
2023-01-18T00:08:35.211Z,21.37
2023-01-18T00:11:06.969Z,26.33
2023-01-18T00:13:33.854Z,25.37
2023-01-18T00:16:04.997Z,21.23
2023-01-18T00:18:32.037Z,21.83
2023-01-18T00:21:06.794Z,26.10
2023-01-18T00:23:33.402Z,24.20
2023-01-18T00:26:01.334Z,20.33
2023-01-18T00:28:27.941Z,22.93
2023-01-18T00:30:54.451Z,21.33
2023-01-18T00:33:20.920Z,23.10
2023-01-18T00:35:57.976Z,22.33
2023-01-18T00:38:25.270Z,22.63
2023-01-18T00:40:51.799Z,24.33
2023-01-18T00:43:37.260Z,23.30
2023-01-18T00:46:03.743Z,29.13
2023-01-18T00:48:31.233Z,24.33
2023-01-18T00:50:57.657Z,20.43
2023-01-18T00:53:24.094Z,21.97
2023-01-18T00:55:50.597Z,23.23
2023-01-18T00:58:17.003Z,20.80
2023-01-18T01:00:43.514Z,18.83
2023-01-18T01:03:09.985Z,23.23
2023-01-18T01:05:56.720Z,20.30
2023-01-18T01:08:23.651Z,21.93
2023-01-18T01:10:53.500Z,19.03
2023-01-18T01:13:40.015Z,21.90
2023-01-18T01:16:29.924Z,20.20
2023-01-18T01:19:15.568Z,23.40
2023-01-18T01:22:00.864Z,23.53
2023-01-18T01:24:46.296Z,24.23
2023-01-18T01:27:13.777Z,21.83
2023-01-18T01:29:40.358Z,24.63
2023-01-18T01:32:06.920Z,26.27
2023-01-18T01:34:33.379Z,27.90
2023-01-18T01:36:59.920Z,24.50
2023-01-18T01:39:26.337Z,20.43
2023-01-18T01:41:52.859Z,24.13
2023-01-18T01:44:24.452Z,20.03
2023-01-18T01:46:53.827Z,22.67
2023-01-18T01:49:50.228Z,22.17
2023-01-18T01:52:22.521Z,22.23
2023-01-18T01:54:56.072Z,25.40
2023-01-18T01:57:27.221Z,23.73
2023-01-18T02:00:01.501Z,32.37
2023-01-18T02:02:30.285Z,22.30
2023-01-18T02:04:59.405Z,23.43
2023-01-18T02:07:28.962Z,26.13
2023-01-18T02:09:57.382Z,29.40
2023-01-18T02:12:24.554Z,27.93
2023-01-18T02:14:52.587Z,27.17
2023-01-18T02:17:18.967Z,28.67
2023-01-18T02:20:06.919Z,21.60
2023-01-18T02:22:48.574Z,26.00
2023-01-18T02:25:40.413Z,26.30
2023-01-18T02:28:20.983Z,30.80
2023-01-18T02:31:03.330Z,25.27
2023-01-18T02:33:58.807Z,24.77
2023-01-18T02:36:51.067Z,25.23
2023-01-18T02:39:38.188Z,24.33
2023-01-18T02:42:37.489Z,33.30
2023-01-18T02:45:39.068Z,24.13
2023-01-18T02:48:07.074Z,22.90
2023-01-18T02:50:33.590Z,27.80
2023-01-18T02:53:00.234Z,25.40
2023-01-18T02:55:43.996Z,25.17
2023-01-18T02:58:30.564Z,22.33
2023-01-18T03:01:04.860Z,27.67
2023-01-18T03:03:31.808Z,25.60
2023-01-18T03:06:01.670Z,21.60
2023-01-18T03:08:39.515Z,25.77
2023-01-18T03:11:12.213Z,25.23
2023-01-18T03:14:27.569Z,25.73
2023-01-18T03:17:16.675Z,30.40
2023-01-18T03:20:01.717Z,23.23
2023-01-18T03:22:49.033Z,30.33
2023-01-18T03:25:20.160Z,25.50
2023-01-18T03:28:07.489Z,24.30
2023-01-18T03:30:53.860Z,26.70
2023-01-18T03:33:41.836Z,25.07
2023-01-18T03:36:16.224Z,29.50
2023-01-18T03:38:46.091Z,26.80
2023-01-18T03:41:13.686Z,26.90
2023-01-18T03:43:41.714Z,21.50
2023-01-18T03:46:08.459Z,23.90
2023-01-18T03:48:39.376Z,27.97
2023-01-18T03:51:19.874Z,30.40
2023-01-18T03:54:18.685Z,26.63
2023-01-18T03:56:57.636Z,25.17
2023-01-18T03:59:29.964Z,29.33
2023-01-18T04:01:56.482Z,21.83
2023-01-18T04:04:22.944Z,26.63
2023-01-18T04:06:49.419Z,22.73
2023-01-18T04:09:15.894Z,22.70
2023-01-18T04:11:42.428Z,28.40
2023-01-18T04:14:08.883Z,25.43
2023-01-18T04:16:35.315Z,25.13
2023-01-18T04:19:01.859Z,23.60
2023-01-18T04:21:28.281Z,28.07
2023-01-18T04:23:54.713Z,26.83
2023-01-18T04:26:21.104Z,23.93
2023-01-18T04:28:47.569Z,23.10
2023-01-18T04:31:14.018Z,26.77
2023-01-18T04:33:40.518Z,28.10
2023-01-18T04:36:07.453Z,27.60
2023-01-18T04:38:33.871Z,28.30
2023-01-18T04:41:04.665Z,25.93
2023-01-18T04:43:31.391Z,28.17
2023-01-18T04:45:58.251Z,26.27
2023-01-18T04:48:25.450Z,29.47
2023-01-18T04:50:52.375Z,26.10
2023-01-18T04:53:18.983Z,28.43
2023-01-18T04:55:46.147Z,28.70
2023-01-18T04:58:12.840Z,25.93
2023-01-18T05:00:42.142Z,22.67
2023-01-18T05:03:10.957Z,26.10
2023-01-18T05:05:37.501Z,23.43
2023-01-18T05:08:04.093Z,24.57
2023-01-18T05:10:30.695Z,24.40
2023-01-18T05:12:57.588Z,28.33
2023-01-18T05:15:24.242Z,27.03
2023-01-18T05:17:50.670Z,24.70
2023-01-18T05:20:17.163Z,23.93
2023-01-18T05:22:43.771Z,27.13
2023-01-18T05:25:10.221Z,30.10
2023-01-18T05:27:37.361Z,26.03
2023-01-18T05:30:06.546Z,31.60
2023-01-18T05:32:33.290Z,33.50
2023-01-18T05:34:59.683Z,38.57
2023-01-18T05:37:26.201Z,35.63
2023-01-18T05:39:52.644Z,31.83
2023-01-18T05:42:19.346Z,38.70
2023-01-18T05:44:45.792Z,39.13
2023-01-18T05:47:12.235Z,35.70
2023-01-18T05:49:41.044Z,44.60
2023-01-18T05:52:08.423Z,30.63
2023-01-18T05:54:35.009Z,33.80
2023-01-18T05:57:01.495Z,37.17
2023-01-18T05:59:28.018Z,28.63
2023-01-18T06:01:54.492Z,27.37
2023-01-18T06:04:22.153Z,32.67
2023-01-18T06:06:48.689Z,25.60
2023-01-18T06:09:15.180Z,26.97
2023-01-18T06:11:41.658Z,26.53
2023-01-18T06:14:08.814Z,27.27
2023-01-18T06:16:35.355Z,27.00
2023-01-18T06:19:01.924Z,25.57
2023-01-18T06:21:28.461Z,22.20
2023-01-18T06:23:54.924Z,29.47
2023-01-18T06:26:21.433Z,29.60
2023-01-18T06:28:47.865Z,28.07
2023-01-18T06:31:14.357Z,32.50
2023-01-18T06:33:40.963Z,26.43
2023-01-18T06:36:07.747Z,23.87
2023-01-18T06:38:34.529Z,28.00
2023-01-18T06:41:00.982Z,28.17
2023-01-18T06:43:27.488Z,26.33
2023-01-18T06:45:55.626Z,26.93
2023-01-18T06:48:24.139Z,24.77
2023-01-18T06:50:54.421Z,28.97
2023-01-18T06:53:20.968Z,21.73
2023-01-18T06:55:58.661Z,25.13
2023-01-18T06:58:26.925Z,25.33
2023-01-18T07:00:58.278Z,24.17
2023-01-18T07:03:27.175Z,20.97
2023-01-18T07:05:57.634Z,23.07
2023-01-18T07:08:26.855Z,27.90
2023-01-18T07:10:54.110Z,26.93
2023-01-18T07:13:21.683Z,26.60
2023-01-18T07:16:01.134Z,25.77
2023-01-18T07:18:29.979Z,29.60
2023-01-18T07:21:04.223Z,28.87
2023-01-18T07:23:30.924Z,31.67
2023-01-18T07:25:59.488Z,29.63
2023-01-18T07:28:26.422Z,33.93
2023-01-18T07:30:52.891Z,30.03
2023-01-18T07:33:19.380Z,31.80
2023-01-18T07:35:45.823Z,31.00
2023-01-18T07:38:12.238Z,32.23
2023-01-18T07:40:38.712Z,30.00
2023-01-18T07:43:05.201Z,27.73
2023-01-18T07:45:31.613Z,34.33
2023-01-18T07:47:58.114Z,36.47
2023-01-18T07:50:24.555Z,32.30
2023-01-18T07:52:51.002Z,35.87
2023-01-18T07:55:17.454Z,37.80
2023-01-18T07:57:43.983Z,41.00
2023-01-18T08:00:11.280Z,37.90
2023-01-18T08:02:37.757Z,41.60
2023-01-18T08:05:04.809Z,39.30
2023-01-18T08:07:34.426Z,41.27
2023-01-18T08:10:00.911Z,39.70
2023-01-18T08:12:27.423Z,41.40
2023-01-18T08:14:53.830Z,31.20
2023-01-18T08:17:20.314Z,41.23
2023-01-18T08:19:46.796Z,34.87
2023-01-18T08:22:13.365Z,35.63
2023-01-18T08:24:39.774Z,31.07
2023-01-18T08:27:06.255Z,33.10
2023-01-18T08:29:32.730Z,39.03
2023-01-18T08:32:00.689Z,32.77
2023-01-18T08:34:27.218Z,34.90
2023-01-18T08:36:53.652Z,34.17
2023-01-18T08:39:20.634Z,27.77
2023-01-18T08:41:47.117Z,32.07
2023-01-18T08:44:13.726Z,28.70
2023-01-18T08:46:42.418Z,34.67
2023-01-18T08:49:10.037Z,29.37
2023-01-18T08:51:36.697Z,33.87
2023-01-18T08:54:03.287Z,35.77
2023-01-18T08:56:29.843Z,32.23
2023-01-18T08:59:00.104Z,31.57
2023-01-18T09:01:26.839Z,42.90
2023-01-18T09:03:55.176Z,34.10
2023-01-18T09:06:21.923Z,41.27
2023-01-18T09:08:48.603Z,35.00
2023-01-18T09:11:16.011Z,34.97
2023-01-18T09:13:59.346Z,39.23
2023-01-18T09:16:27.377Z,32.53
2023-01-18T09:18:55.390Z,34.73
2023-01-18T09:21:22.099Z,39.97
2023-01-18T09:23:49.407Z,33.57
2023-01-18T09:26:17.168Z,36.80
2023-01-18T09:28:47.515Z,39.87
2023-01-18T09:31:14.411Z,37.50
2023-01-18T09:33:51.217Z,38.10
2023-01-18T09:36:21.489Z,34.83
2023-01-18T09:38:48.106Z,37.47
2023-01-18T09:41:38.055Z,42.90
2023-01-18T09:44:17.949Z,36.80
2023-01-18T09:46:45.695Z,36.13
2023-01-18T09:49:22.013Z,37.37
2023-01-18T09:52:09.781Z,37.60
2023-01-18T09:54:48.418Z,36.30
2023-01-18T09:57:28.957Z,36.93
2023-01-18T09:59:59.470Z,42.60
2023-01-18T10:02:32.518Z,36.77
2023-01-18T10:05:05.148Z,33.20
2023-01-18T10:07:36.127Z,34.57
2023-01-18T10:10:04.318Z,35.50
2023-01-18T10:12:40.711Z,32.90
2023-01-18T10:15:22.233Z,45.80
2023-01-18T10:17:53.614Z,38.50
2023-01-18T10:20:32.283Z,36.13
2023-01-18T10:23:03.493Z,38.17
2023-01-18T10:25:56.801Z,34.50
2023-01-18T10:29:03.173Z,35.10
2023-01-18T10:31:47.167Z,38.30
2023-01-18T10:34:22.079Z,39.70
2023-01-18T10:36:55.821Z,40.60
2023-01-18T10:39:36.220Z,36.53
2023-01-18T10:42:06.492Z,37.47
2023-01-18T10:44:33.355Z,39.33
2023-01-18T10:47:01.313Z,41.30
2023-01-18T10:49:44.889Z,41.03
2023-01-18T10:52:29.635Z,44.27
2023-01-18T10:55:01.527Z,42.80
2023-01-18T10:57:36.198Z,43.60
2023-01-18T11:00:12.381Z,39.00
2023-01-18T11:02:39.857Z,39.67
2023-01-18T11:05:32.680Z,45.40
2023-01-18T11:08:30.142Z,42.03
2023-01-18T11:10:59.748Z,38.83
2023-01-18T11:13:47.934Z,38.73
2023-01-18T11:16:18.032Z,43.57
2023-01-18T11:18:56.825Z,45.93
2023-01-18T11:21:24.946Z,45.00
2023-01-18T11:23:52.968Z,38.37
2023-01-18T11:26:22.618Z,43.03
2023-01-18T11:29:00.174Z,44.50
2023-01-18T11:31:30.594Z,38.43
2023-01-18T11:34:03.589Z,43.47
2023-01-18T11:36:45.278Z,39.03
2023-01-18T11:39:30.350Z,44.23
2023-01-18T11:42:11.828Z,45.50
2023-01-18T11:45:19.823Z,45.23
2023-01-18T11:48:20.347Z,39.60
2023-01-18T11:50:49.222Z,44.13
2023-01-18T11:53:23.908Z,43.23
2023-01-18T11:56:05.809Z,39.10
2023-01-18T11:58:35.095Z,43.00
2023-01-18T12:01:21.647Z,42.90
2023-01-18T12:03:51.192Z,34.27
2023-01-18T12:06:41.416Z,44.13
2023-01-18T12:09:27.091Z,41.80
2023-01-18T12:12:19.308Z,39.50
2023-01-18T12:14:46.215Z,41.13
2023-01-18T12:17:27.832Z,44.63
2023-01-18T12:20:00.598Z,42.13
2023-01-18T12:22:45.143Z,38.73
2023-01-18T12:25:30.344Z,49.43
2023-01-18T12:28:21.340Z,45.37
2023-01-18T12:31:17.882Z,38.93
2023-01-18T12:33:57.372Z,41.77
2023-01-18T12:36:29.864Z,37.33
2023-01-18T12:38:57.085Z,36.13
2023-01-18T12:41:35.008Z,39.80
2023-01-18T12:44:30.983Z,36.83
2023-01-18T12:47:11.667Z,39.23
2023-01-18T12:49:47.398Z,43.07
2023-01-18T12:52:19.314Z,32.47
2023-01-18T12:54:51.105Z,34.57
2023-01-18T12:57:19.648Z,37.70
2023-01-18T12:59:54.113Z,40.60
2023-01-18T13:02:40.064Z,32.60
2023-01-18T13:05:13.166Z,41.53
2023-01-18T13:07:45.435Z,42.40
2023-01-18T13:10:28.779Z,32.47
2023-01-18T13:12:57.119Z,32.53
2023-01-18T13:15:45.949Z,31.67
2023-01-18T13:18:22.137Z,31.73
2023-01-18T13:21:00.732Z,34.60
2023-01-18T13:23:46.971Z,29.83
2023-01-18T13:26:16.450Z,29.70
2023-01-18T13:28:44.039Z,29.87
2023-01-18T13:31:10.601Z,25.40
2023-01-18T13:33:40.855Z,26.43
2023-01-18T13:36:11.033Z,23.53
2023-01-18T13:39:00.972Z,19.93
2023-01-18T13:41:29.988Z,17.53
2023-01-18T13:44:03.770Z,15.83
2023-01-18T13:46:35.325Z,18.03
2023-01-18T13:49:36.684Z,19.87
2023-01-18T13:52:32.669Z,22.00
2023-01-18T13:55:03.805Z,16.20
2023-01-18T13:57:31.682Z,16.90
2023-01-18T13:59:59.952Z,14.70
2023-01-18T14:02:33.999Z,12.17
2023-01-18T14:05:17.160Z,22.57
2023-01-18T14:07:50.656Z,16.87
2023-01-18T14:10:38.835Z,16.10
2023-01-18T14:13:14.923Z,14.93
2023-01-18T14:16:00.303Z,18.53
2023-01-18T14:18:29.946Z,18.90
2023-01-18T14:21:14.638Z,16.30
2023-01-18T14:23:55.462Z,14.10
2023-01-18T14:26:25.008Z,14.13
2023-01-18T14:29:00.452Z,13.40
2023-01-18T14:31:32.724Z,21.13
2023-01-18T14:34:37.903Z,16.83
2023-01-18T14:37:35.499Z,18.07
2023-01-18T14:40:26.362Z,18.60
2023-01-18T14:43:00.941Z,13.03
2023-01-18T14:45:35.001Z,17.53
2023-01-18T14:48:23.127Z,17.27
2023-01-18T14:50:53.506Z,16.67
2023-01-18T14:53:19.930Z,15.57
2023-01-18T14:56:03.096Z,14.63
2023-01-18T14:58:34.811Z,15.07
2023-01-18T15:01:01.385Z,17.57
2023-01-18T15:03:29.855Z,20.07
2023-01-18T15:06:02.494Z,16.10
2023-01-18T15:08:31.567Z,17.83
2023-01-18T15:11:01.289Z,23.30
2023-01-18T15:13:29.768Z,15.83
2023-01-18T15:16:02.064Z,14.80
2023-01-18T15:18:29.820Z,18.70
2023-01-18T15:21:17.004Z,17.80
2023-01-18T15:23:43.877Z,18.67
2023-01-18T15:26:10.359Z,18.20
2023-01-18T15:28:37.134Z,15.93
2023-01-18T15:31:14.120Z,18.50
2023-01-18T15:33:41.856Z,17.93
2023-01-18T15:36:09.864Z,23.77
2023-01-18T15:41:17.997Z,20.93
2023-01-18T15:43:46.078Z,20.07
2023-01-18T15:46:16.107Z,19.00
2023-01-18T15:48:57.830Z,22.10
2023-01-18T15:51:44.548Z,21.07
2023-01-18T15:54:19.913Z,17.00
2023-01-18T15:56:47.719Z,24.67
2023-01-18T15:59:20.330Z,22.40
2023-01-18T16:02:04.932Z,24.50
2023-01-18T16:04:31.615Z,21.00
2023-01-18T16:06:58.515Z,16.97
2023-01-18T16:09:25.664Z,18.67
2023-01-18T16:11:56.444Z,17.57
2023-01-18T16:14:23.601Z,22.40
2023-01-18T16:16:51.248Z,17.57
2023-01-18T16:19:20.672Z,16.37
2023-01-18T16:21:49.987Z,16.30
2023-01-18T16:24:38.730Z,20.63
2023-01-18T16:27:11.470Z,21.97
2023-01-18T16:29:54.145Z,18.33
2023-01-18T16:32:31.256Z,19.70
2023-01-18T16:35:21.079Z,18.37
2023-01-18T16:37:48.504Z,24.73
2023-01-18T16:40:20.664Z,21.33
2023-01-18T16:43:04.812Z,19.10
2023-01-18T16:45:35.689Z,19.40
2023-01-18T16:48:03.080Z,17.17
2023-01-18T16:50:29.689Z,17.40
2023-01-18T16:52:56.287Z,17.97
2023-01-18T16:55:23.032Z,21.20
2023-01-18T16:57:51.533Z,22.60
2023-01-18T17:00:24.142Z,18.67
2023-01-18T17:02:51.701Z,17.67
2023-01-18T17:05:18.268Z,15.97
2023-01-18T17:07:45.310Z,21.40
2023-01-18T17:10:23.798Z,20.60
2023-01-18T17:12:50.273Z,22.20
2023-01-18T17:15:18.719Z,20.70
2023-01-18T17:17:46.317Z,17.93
2023-01-18T17:20:19.081Z,20.60
2023-01-18T17:22:46.024Z,31.27
2023-01-18T17:25:13.040Z,21.67
2023-01-18T17:27:39.613Z,19.80
2023-01-18T17:30:06.644Z,21.93
2023-01-18T17:32:33.304Z,19.73
2023-01-18T17:34:59.924Z,20.57
2023-01-18T17:37:26.436Z,19.07
2023-01-18T17:40:10.957Z,21.17
2023-01-18T17:42:39.511Z,20.27
2023-01-18T17:45:09.813Z,21.03
2023-01-18T17:47:39.029Z,25.07
2023-01-18T17:50:09.889Z,20.17
2023-01-18T17:52:37.084Z,21.53
2023-01-18T17:55:03.713Z,24.80
2023-01-18T17:57:30.233Z,22.43
2023-01-18T17:59:57.151Z,21.57
2023-01-18T18:02:25.186Z,21.00
2023-01-18T18:04:52.112Z,20.27
2023-01-18T18:07:18.616Z,23.27
2023-01-18T18:09:45.060Z,19.83
2023-01-18T18:12:11.811Z,19.97
2023-01-18T18:14:40.120Z,21.60
2023-01-18T18:17:07.705Z,23.70
2023-01-18T18:19:34.310Z,20.50
2023-01-18T18:22:01.465Z,21.23
2023-01-18T18:24:27.948Z,25.13
2023-01-18T18:26:54.379Z,23.97
2023-01-18T18:29:21.039Z,27.63
2023-01-18T18:31:47.574Z,22.90
2023-01-18T18:34:14.046Z,19.73
2023-01-18T18:36:40.790Z,21.20
2023-01-18T18:39:08.753Z,22.60
2023-01-18T18:41:35.430Z,20.80
2023-01-18T18:44:02.004Z,18.93
2023-01-18T18:46:28.801Z,21.30
2023-01-18T18:48:56.302Z,30.83
2023-01-18T18:51:35.282Z,19.00
2023-01-18T18:54:02.785Z,23.20
2023-01-18T18:56:29.224Z,19.27
2023-01-18T18:58:56.023Z,17.93
2023-01-18T19:01:29.234Z,20.43
2023-01-18T19:03:57.611Z,16.77
2023-01-18T19:06:25.697Z,18.10
2023-01-18T19:08:52.823Z,16.10
2023-01-18T19:11:20.177Z,19.07
2023-01-18T19:13:48.536Z,17.33
2023-01-18T19:16:15.870Z,21.60
2023-01-18T19:18:42.371Z,16.00
2023-01-18T19:21:08.819Z,18.00
2023-01-18T19:23:35.513Z,16.30
2023-01-18T19:26:02.137Z,21.77
2023-01-18T19:28:29.309Z,19.57
2023-01-18T19:31:05.192Z,20.17
2023-01-18T19:33:32.004Z,24.43
2023-01-18T19:35:58.858Z,20.20
2023-01-18T19:38:25.793Z,19.10
2023-01-18T19:40:52.697Z,19.43
2023-01-18T19:43:19.886Z,17.57
2023-01-18T19:45:46.637Z,18.70
2023-01-18T19:48:13.457Z,17.30
2023-01-18T19:50:40.125Z,18.40
2023-01-18T19:53:06.880Z,17.80
2023-01-18T19:55:38.149Z,17.67
2023-01-18T19:58:06.265Z,20.03
2023-01-18T20:00:33.256Z,18.03
2023-01-18T20:03:02.961Z,21.40
2023-01-18T20:05:29.613Z,20.63
2023-01-18T20:07:56.186Z,17.30
2023-01-18T20:10:22.604Z,18.90
2023-01-18T20:12:50.062Z,17.50
2023-01-18T20:15:18.493Z,20.10
2023-01-18T20:17:45.011Z,16.60
2023-01-18T20:20:16.170Z,18.40
2023-01-18T20:22:45.737Z,17.30
2023-01-18T20:25:12.334Z,21.03
2023-01-18T20:27:38.806Z,19.27
2023-01-18T20:30:06.054Z,20.43
2023-01-18T20:32:32.562Z,19.13
2023-01-18T20:34:59.051Z,20.20
2023-01-18T20:37:25.592Z,18.60
2023-01-18T20:39:52.219Z,20.87
2023-01-18T20:42:18.647Z,21.43
2023-01-18T20:44:49.155Z,21.27
2023-01-18T20:47:15.996Z,20.57
2023-01-18T20:49:42.476Z,20.27
2023-01-18T20:52:08.910Z,21.00
2023-01-18T20:54:36.583Z,23.03
2023-01-18T20:57:07.043Z,25.67
2023-01-18T20:59:35.026Z,26.23
2023-01-18T21:02:03.004Z,17.33
2023-01-18T21:04:29.798Z,17.73
2023-01-18T21:06:57.326Z,18.87
2023-01-18T21:09:24.901Z,15.67
2023-01-18T21:11:51.576Z,21.43
2023-01-18T21:14:18.181Z,23.00
2023-01-18T21:16:44.869Z,21.50
2023-01-18T21:19:11.520Z,17.50
2023-01-18T21:21:38.231Z,22.77
2023-01-18T21:24:04.988Z,24.50
2023-01-18T21:26:31.642Z,26.13
2023-01-18T21:28:59.266Z,21.43
2023-01-18T21:31:25.933Z,20.07
2023-01-18T21:33:54.130Z,19.93
2023-01-18T21:36:22.756Z,17.37
2023-01-18T21:38:49.948Z,16.40
2023-01-18T21:41:34.958Z,21.07
2023-01-18T21:44:20.260Z,17.50
2023-01-18T21:46:47.976Z,20.20
2023-01-18T21:49:52.499Z,19.93
2023-01-18T21:52:38.445Z,18.53
2023-01-18T21:55:05.257Z,19.07
2023-01-18T21:57:31.745Z,19.23
2023-01-18T21:59:58.188Z,19.27
2023-01-18T22:02:24.888Z,17.33
2023-01-18T22:05:00.581Z,27.13
2023-01-18T22:07:28.219Z,20.27
2023-01-18T22:10:04.013Z,19.67
2023-01-18T22:12:32.586Z,16.00
2023-01-18T22:15:01.394Z,19.63
2023-01-18T22:17:27.872Z,22.33
2023-01-18T22:19:54.532Z,17.03
2023-01-18T22:22:20.960Z,18.80
2023-01-18T22:24:47.451Z,21.83
2023-01-18T22:27:13.857Z,16.23
2023-01-18T22:29:40.292Z,20.70
2023-01-18T22:32:06.776Z,22.10
2023-01-18T22:34:33.224Z,17.97
2023-01-18T22:36:59.692Z,18.90
2023-01-18T22:39:26.233Z,21.67
2023-01-18T22:41:52.759Z,20.27
2023-01-18T22:44:19.235Z,17.50
2023-01-18T22:46:46.663Z,18.03
2023-01-18T22:49:13.152Z,20.67
2023-01-18T22:51:39.671Z,18.27
2023-01-18T22:54:06.481Z,18.43
2023-01-18T22:56:33.018Z,17.80
2023-01-18T22:59:00.419Z,18.97
2023-01-18T23:01:30.928Z,19.60
2023-01-18T23:04:01.383Z,18.40
2023-01-18T23:06:29.587Z,21.90
2023-01-18T23:08:56.438Z,17.60
2023-01-18T23:11:25.498Z,16.80
2023-01-18T23:14:16.173Z,22.83
2023-01-18T23:17:02.394Z,21.23
2023-01-18T23:19:30.921Z,17.60
2023-01-18T23:21:57.670Z,19.67
2023-01-18T23:24:24.194Z,15.63
2023-01-18T23:26:51.232Z,16.70
2023-01-18T23:29:17.954Z,20.40
2023-01-18T23:31:44.387Z,16.77
2023-01-18T23:34:10.992Z,17.20
2023-01-18T23:36:37.451Z,18.00
2023-01-18T23:39:22.885Z,19.10
2023-01-18T23:42:07.757Z,18.40
2023-01-18T23:44:52.470Z,19.30
2023-01-18T23:47:37.235Z,16.00
2023-01-18T23:50:22.395Z,17.73
2023-01-18T23:53:07.358Z,14.77
2023-01-18T23:55:33.813Z,16.90
2023-01-18T23:58:00.722Z,19.00
